Time;durP1;ratioP1;P1;durP2;ratioP2;P2;SDS_P1;SDS_P2;PMS_P1;PMS_P2;Temp;Humidity;BMP_temperature;BMP_pressure;BME280_temperature;BME280_humidity;BME280_pressure;Samples;Min_cycle;Max_cycle;Signal;HPM_P1;HPM_P2
2022/11/05 00:09:32;;;;;;;7.63;1.90;;;;;;;;;;4957236;28;20118;-63
2022/11/05 00:17:31;;;;;;;8.70;2.22;;;;;;;;;;4956580;28;20059;-63
2022/11/05 00:19:58;;;;;;;3.90;1.88;;;;;;;;;;4961160;28;20054;-63
2022/11/05 00:25:15;;;;;;;4.43;1.98;;;;;;;;;;4961869;28;20069;-63
2022/11/05 00:27:42;;;;;;;5.65;2.05;;;;;;;;;;4949484;28;20123;-63
2022/11/05 00:30:10;;;;;;;5.70;2.60;;;;;;;;;;4960244;28;20050;-63
2022/11/05 00:32:37;;;;;;;4.60;2.10;;;;;;;;;;4953616;28;20051;-63
2022/11/05 00:35:04;;;;;;;7.55;2.17;;;;;;;;;;4960973;28;20055;-63
2022/11/05 00:37:31;;;;;;;6.68;2.08;;;;;;;;;;4956560;28;20043;-63
2022/11/05 00:39:58;;;;;;;4.85;1.95;;;;;;;;;;4991977;28;20063;-63
2022/11/05 00:45:11;;;;;;;5.28;2.00;;;;;;;;;;4994121;28;20062;-63
2022/11/05 00:50:22;;;;;;;4.35;1.92;;;;;;;;;;4960980;28;20059;-63
2022/11/05 00:52:55;;;;;;;6.35;2.05;;;;;;;;;;4965218;28;20137;-63
2022/11/05 00:55:22;;;;;;;3.92;1.90;;;;;;;;;;4962892;28;20059;-63
2022/11/05 00:57:51;;;;;;;3.67;1.83;;;;;;;;;;4954110;28;20055;-63
2022/11/05 01:00:18;;;;;;;6.13;2.28;;;;;;;;;;4953394;28;20062;-63
2022/11/05 01:02:45;;;;;;;4.85;1.70;;;;;;;;;;4959367;28;20082;-63
2022/11/05 01:05:13;;;;;;;4.65;1.88;;;;;;;;;;4955566;28;20054;-64
2022/11/05 01:07:39;;;;;;;4.65;1.90;;;;;;;;;;4951607;28;20054;-63
2022/11/05 01:10:06;;;;;;;4.20;2.00;;;;;;;;;;4955970;28;20146;-63
2022/11/05 01:12:33;;;;;;;5.97;1.90;;;;;;;;;;4964519;28;20113;-63
2022/11/05 01:15:01;;;;;;;4.70;2.00;;;;;;;;;;4957152;28;20058;-63
2022/11/05 01:17:29;;;;;;;6.07;2.20;;;;;;;;;;4956934;28;20047;-63
2022/11/05 01:19:55;;;;;;;3.45;1.65;;;;;;;;;;4944735;28;21486;-63
2022/11/05 01:22:22;;;;;;;6.55;1.88;;;;;;;;;;4962477;28;20059;-63
2022/11/05 01:24:49;;;;;;;3.65;1.77;;;;;;;;;;4954937;28;20050;-63
2022/11/05 01:27:15;;;;;;;6.00;1.83;;;;;;;;;;4960555;28;20083;-63
2022/11/05 01:29:42;;;;;;;7.70;1.80;;;;;;;;;;4951344;28;20067;-63
2022/11/05 01:32:10;;;;;;;5.63;2.10;;;;;;;;;;4961663;28;20074;-63
2022/11/05 01:34:37;;;;;;;5.10;1.60;;;;;;;;;;4953900;28;20070;-63
2022/11/05 01:37:04;;;;;;;4.80;2.03;;;;;;;;;;4938433;28;20055;-63
2022/11/05 01:39:31;;;;;;;6.13;2.15;;;;;;;;;;4935920;28;20059;-64
2022/11/05 01:41:58;;;;;;;4.22;1.80;;;;;;;;;;4957859;28;20066;-63
2022/11/05 01:44:55;;;;;;;3.28;1.63;;;;;;;;;;4960925;28;20118;-63
2022/11/05 01:47:29;;;;;;;5.57;1.70;;;;;;;;;;4888046;29;20063;-63
2022/11/05 01:49:57;;;;;;;6.25;1.90;;;;;;;;;;4940967;28;20053;-63
2022/11/05 01:52:24;;;;;;;;;;;;;;;;;;4991006;28;20051;-63
2022/11/05 01:54:51;;;;;;;3.78;1.63;;;;;;;;;;4960137;28;19926;-63
2022/11/05 01:57:17;;;;;;;4.57;1.70;;;;;;;;;;4953563;28;20148;-63
2022/11/05 01:59:47;;;;;;;4.85;1.90;;;;;;;;;;4952344;28;20190;-63
2022/11/05 02:02:14;;;;;;;3.22;1.50;;;;;;;;;;4953451;28;20096;-63
2022/11/05 02:04:43;;;;;;;6.35;2.00;;;;;;;;;;4960122;28;20050;-63
2022/11/05 02:07:10;;;;;;;3.40;1.50;;;;;;;;;;4951561;28;20055;-63
2022/11/05 02:09:41;;;;;;;5.82;1.63;;;;;;;;;;4950351;28;20050;-63
2022/11/05 02:12:08;;;;;;;4.97;1.88;;;;;;;;;;4953470;28;20059;-63
2022/11/05 02:14:35;;;;;;;5.00;1.83;;;;;;;;;;4960700;28;20047;-63
2022/11/05 02:17:05;;;;;;;3.10;1.50;;;;;;;;;;4954113;28;20055;-63
2022/11/05 02:19:44;;;;;;;3.47;1.42;;;;;;;;;;4957085;28;20059;-63
2022/11/05 02:22:38;;;;;;;3.17;1.38;;;;;;;;;;4950833;28;20058;-63
2022/11/05 02:25:23;;;;;;;3.30;1.40;;;;;;;;;;4958514;28;20062;-63
2022/11/05 02:28:03;;;;;;;2.65;1.30;;;;;;;;;;4946411;28;20054;-63
2022/11/05 02:30:36;;;;;;;4.68;1.63;;;;;;;;;;4962946;28;20066;-63
2022/11/05 02:33:20;;;;;;;4.60;1.48;;;;;;;;;;4957554;28;20054;-63
2022/11/05 02:35:52;;;;;;;2.42;1.20;;;;;;;;;;4943786;28;20059;-63
2022/11/05 02:38:24;;;;;;;4.13;1.50;;;;;;;;;;4956360;28;20047;-64
2022/11/05 02:40:56;;;;;;;4.40;1.30;;;;;;;;;;4963012;28;20059;-64
2022/11/05 02:43:26;;;;;;;2.42;1.20;;;;;;;;;;4954430;28;20120;-63
2022/11/05 02:46:01;;;;;;;2.92;1.50;;;;;;;;;;4952560;28;20161;-63
2022/11/05 02:48:30;;;;;;;2.75;1.30;;;;;;;;;;4952342;28;20054;-63
2022/11/05 02:51:02;;;;;;;2.17;1.30;;;;;;;;;;4959211;28;20062;-63
2022/11/05 02:53:33;;;;;;;2.47;1.15;;;;;;;;;;4951762;28;20046;-64
2022/11/05 02:56:04;;;;;;;2.42;1.30;;;;;;;;;;4956126;28;20055;-63
2022/11/05 02:58:33;;;;;;;2.72;1.27;;;;;;;;;;4952955;28;20078;-63
2022/11/05 03:01:05;;;;;;;2.33;1.10;;;;;;;;;;4956790;28;20082;-63
2022/11/05 03:03:34;;;;;;;2.50;1.17;;;;;;;;;;4947614;28;20139;-63
2022/11/05 03:06:15;;;;;;;2.28;1.10;;;;;;;;;;4991756;28;20046;-64
2022/11/05 03:08:49;;;;;;;3.97;1.23;;;;;;;;;;4990722;28;20067;-63
2022/11/05 03:11:17;;;;;;;2.75;1.10;;;;;;;;;;4960624;28;20062;-63
2022/11/05 03:13:49;;;;;;;2.67;1.10;;;;;;;;;;4984550;28;20149;-63
2022/11/05 03:16:19;;;;;;;2.97;1.27;;;;;;;;;;4960579;28;20106;-63
2022/11/05 03:18:47;;;;;;;3.00;1.33;;;;;;;;;;4956972;28;20050;-63
2022/11/05 03:21:14;;;;;;;;;;;;;;;;;;4962697;28;20142;-63
2022/11/05 03:23:42;;;;;;;3.17;1.08;;;;;;;;;;4955779;28;19926;-63
2022/11/05 03:26:09;;;;;;;;;;;;;;;;;;4958017;28;20058;-64
2022/11/05 03:28:37;;;;;;;2.80;1.00;;;;;;;;;;4960795;28;19922;-64
2022/11/05 03:31:06;;;;;;;1.50;0.82;;;;;;;;;;4956061;28;20051;-63
2022/11/05 03:33:37;;;;;;;2.60;1.15;;;;;;;;;;4957861;28;20079;-64
2022/11/05 03:36:05;;;;;;;1.92;1.10;;;;;;;;;;4961473;28;20105;-63
2022/11/05 03:38:34;;;;;;;2.92;1.20;;;;;;;;;;4961996;28;20050;-63
2022/11/05 03:41:03;;;;;;;2.00;1.02;;;;;;;;;;4956643;28;20126;-63
2022/11/05 03:43:34;;;;;;;1.80;1.05;;;;;;;;;;4965846;28;20054;-64
2022/11/05 03:46:02;;;;;;;3.17;1.00;;;;;;;;;;4959630;28;20053;-63
2022/11/05 03:48:30;;;;;;;1.88;0.95;;;;;;;;;;4964265;28;20133;-63
2022/11/05 03:51:00;;;;;;;7.85;1.20;;;;;;;;;;4953681;28;20063;-63
2022/11/05 03:53:32;;;;;;;2.78;1.20;;;;;;;;;;4964401;28;20054;-63
2022/11/05 03:56:00;;;;;;;3.58;1.27;;;;;;;;;;4957668;28;20129;-63
2022/11/05 03:58:28;;;;;;;2.35;1.10;;;;;;;;;;4964182;28;20065;-63
2022/11/05 04:00:55;;;;;;;2.77;1.00;;;;;;;;;;4961990;28;20101;-63
2022/11/05 04:03:21;;;;;;;2.38;1.20;;;;;;;;;;4962108;28;20058;-63
2022/11/05 04:13:22;;;;;;;3.53;1.00;;;;;;;;;;4956002;28;20070;-63
2022/11/05 04:14:20;;;;;;;2.70;1.35;;;;;;;;;;4924564;29;20058;-63
2022/11/05 04:25:05;;;;;;;3.47;1.10;;;;;;;;;;4961317;28;20140;-63
2022/11/05 04:27:32;;;;;;;3.60;1.05;;;;;;;;;;4951484;28;20073;-62
2022/11/05 04:32:55;;;;;;;1.88;1.00;;;;;;;;;;4954747;28;20067;-63
2022/11/05 04:35:21;;;;;;;;;;;;;;;;;;4959919;28;20050;-63
2022/11/05 04:37:48;;;;;;;2.28;1.05;;;;;;;;;;4948611;28;19933;-63
2022/11/05 04:40:17;;;;;;;2.05;1.05;;;;;;;;;;4960008;28;20058;-63
2022/11/05 04:42:43;;;;;;;3.72;1.13;;;;;;;;;;4954648;28;20050;-63
2022/11/05 04:45:13;;;;;;;2.55;1.08;;;;;;;;;;4964162;28;20046;-63
2022/11/05 04:47:39;;;;;;;2.80;1.20;;;;;;;;;;4951780;28;20058;-63
2022/11/05 04:50:08;;;;;;;2.22;1.00;;;;;;;;;;4960290;28;20054;-63
2022/11/05 04:52:36;;;;;;;2.20;1.00;;;;;;;;;;4955137;28;20055;-63
2022/11/05 04:55:02;;;;;;;3.88;1.20;;;;;;;;;;4959402;28;20141;-63
2022/11/05 04:57:32;;;;;;;2.90;1.08;;;;;;;;;;4955305;28;20055;-63
2022/11/05 04:59:59;;;;;;;4.38;1.30;;;;;;;;;;4939580;28;20162;-63
2022/11/05 05:02:26;;;;;;;2.92;1.13;;;;;;;;;;4940839;28;20055;-63
2022/11/05 05:04:52;;;;;;;5.10;1.38;;;;;;;;;;4983807;28;20101;-63
2022/11/05 05:07:19;;;;;;;4.35;1.23;;;;;;;;;;4973669;28;20082;-63
2022/11/05 05:09:46;;;;;;;4.13;1.30;;;;;;;;;;4980256;28;20137;-63
2022/11/05 05:12:12;;;;;;;3.55;1.38;;;;;;;;;;4965655;28;20054;-63
2022/11/05 05:14:40;;;;;;;4.10;1.10;;;;;;;;;;4954616;28;20088;-63
2022/11/05 05:17:07;;;;;;;4.57;1.50;;;;;;;;;;4961486;28;20054;-63
2022/11/05 05:21:37;;;;;;;4.43;1.38;;;;;;;;;;4952265;28;20065;-63
2022/11/05 05:22:20;;;;;;;2.55;1.05;;;;;;;;;;4952861;28;20065;-63
2022/11/05 05:24:47;;;;;;;2.25;1.05;;;;;;;;;;4955625;28;20054;-63
2022/11/05 05:27:13;;;;;;;4.65;1.58;;;;;;;;;;4965454;28;20070;-63
2022/11/05 05:29:41;;;;;;;4.78;1.77;;;;;;;;;;4954449;28;20054;-63
2022/11/05 05:32:08;;;;;;;2.53;1.20;;;;;;;;;;4960002;28;20055;-64
2022/11/05 05:34:35;;;;;;;5.50;1.75;;;;;;;;;;4958439;28;20053;-63
2022/11/05 05:37:01;;;;;;;4.60;1.67;;;;;;;;;;4960386;28;20085;-63
2022/11/05 05:39:29;;;;;;;4.22;1.30;;;;;;;;;;4958010;28;20051;-63
2022/11/05 05:41:55;;;;;;;2.75;1.25;;;;;;;;;;4960900;28;20062;-63
2022/11/05 05:44:22;;;;;;;2.80;1.08;;;;;;;;;;4955787;28;20062;-63
2022/11/05 05:46:53;;;;;;;3.33;1.30;;;;;;;;;;4953686;28;20050;-63
2022/11/05 05:49:20;;;;;;;3.28;1.20;;;;;;;;;;4960744;28;20108;-62
2022/11/05 05:51:48;;;;;;;4.75;1.40;;;;;;;;;;4952066;28;20047;-63
2022/11/05 05:54:15;;;;;;;2.75;1.27;;;;;;;;;;4959615;28;20054;-63
2022/11/05 05:56:43;;;;;;;3.50;1.60;;;;;;;;;;4954451;28;20063;-63
2022/11/05 05:59:10;;;;;;;4.78;1.67;;;;;;;;;;4959816;28;20059;-63
2022/11/05 06:01:36;;;;;;;4.10;1.38;;;;;;;;;;4947587;28;20051;-63
2022/11/05 06:04:04;;;;;;;3.72;1.30;;;;;;;;;;4959927;28;20140;-63
2022/11/05 06:06:31;;;;;;;4.50;1.67;;;;;;;;;;4954020;28;20062;-63
2022/11/05 06:08:57;;;;;;;3.33;1.42;;;;;;;;;;4957402;28;20059;-63
2022/11/05 06:11:24;;;;;;;5.88;1.50;;;;;;;;;;4954185;28;20065;-62
2022/11/05 06:13:51;;;;;;;7.55;1.88;;;;;;;;;;4954032;28;20059;-65
2022/11/05 06:16:21;;;;;;;3.80;1.50;;;;;;;;;;4953745;28;20087;-63
2022/11/05 06:18:48;;;;;;;2.17;1.20;;;;;;;;;;4959632;28;20170;-63
2022/11/05 06:21:17;;;;;;;4.95;1.40;;;;;;;;;;4954786;28;20054;-63
2022/11/05 06:23:44;;;;;;;2.58;1.25;;;;;;;;;;4953620;28;20074;-63
2022/11/05 06:26:12;;;;;;;3.38;1.27;;;;;;;;;;4945544;28;20186;-63
2022/11/05 06:28:38;;;;;;;2.92;1.40;;;;;;;;;;4959458;28;20113;-63
2022/11/05 06:31:06;;;;;;;10.68;2.15;;;;;;;;;;4961235;28;20061;-63
2022/11/05 06:33:33;;;;;;;2.17;1.10;;;;;;;;;;4956213;28;20063;-63
2022/11/05 06:36:00;;;;;;;3.37;1.53;;;;;;;;;;4959666;28;20069;-63
2022/11/05 06:38:29;;;;;;;2.70;1.33;;;;;;;;;;4953209;28;20058;-63
2022/11/05 06:40:57;;;;;;;2.88;1.27;;;;;;;;;;4963844;28;20078;-63
2022/11/05 06:43:26;;;;;;;;;;;;;;;;;;4953655;28;20118;-64
2022/11/05 06:45:56;;;;;;;7.22;1.48;;;;;;;;;;4960776;28;19964;-63
2022/11/05 06:48:24;;;;;;;4.97;1.25;;;;;;;;;;4961889;28;20058;-63
2022/11/05 06:50:50;;;;;;;4.90;1.42;;;;;;;;;;4968194;28;20110;-63
2022/11/05 06:53:17;;;;;;;4.65;1.65;;;;;;;;;;4948658;28;20051;-63
2022/11/05 06:55:46;;;;;;;4.45;1.50;;;;;;;;;;4961354;28;20055;-63
2022/11/05 06:58:13;;;;;;;4.28;1.73;;;;;;;;;;4956314;28;20058;-63
2022/11/05 07:00:40;;;;;;;2.25;1.20;;;;;;;;;;4963144;28;20121;-63
2022/11/05 07:03:08;;;;;;;5.13;2.13;;;;;;;;;;4959229;28;20073;-63
2022/11/05 07:05:36;;;;;;;14.48;4.97;;;;;;;;;;4961736;28;20078;-63
2022/11/05 07:08:03;;;;;;;4.78;2.22;;;;;;;;;;4954664;28;20058;-63
2022/11/05 07:10:29;;;;;;;5.90;1.85;;;;;;;;;;4961204;28;20058;-63
2022/11/05 07:12:57;;;;;;;3.40;1.75;;;;;;;;;;4986031;28;20138;-63
2022/11/05 07:15:24;;;;;;;4.87;1.53;;;;;;;;;;4992015;28;20059;-63
2022/11/05 07:17:51;;;;;;;4.93;1.80;;;;;;;;;;4960538;28;20293;-63
2022/11/05 07:20:17;;;;;;;2.67;1.15;;;;;;;;;;4957995;28;20065;-63
2022/11/05 07:22:44;;;;;;;4.70;2.08;;;;;;;;;;4963768;28;20050;-63
2022/11/05 07:25:11;;;;;;;5.00;2.30;;;;;;;;;;4983117;28;20070;-63
2022/11/05 07:27:38;;;;;;;3.80;1.48;;;;;;;;;;4956783;28;20104;-63
2022/11/05 07:30:08;;;;;;;4.10;1.58;;;;;;;;;;4956849;28;20146;-63
2022/11/05 07:32:38;;;;;;;2.92;1.27;;;;;;;;;;4962109;28;20058;-63
2022/11/05 07:35:05;;;;;;;3.65;1.38;;;;;;;;;;4957835;28;20054;-63
2022/11/05 07:37:32;;;;;;;4.40;1.58;;;;;;;;;;4984642;28;20050;-63
2022/11/05 07:39:59;;;;;;;3.22;1.40;;;;;;;;;;4981335;28;20066;-63
2022/11/05 07:42:25;;;;;;;3.60;1.30;;;;;;;;;;4962870;28;20056;-63
2022/11/05 07:44:52;;;;;;;4.00;1.42;;;;;;;;;;4957526;28;20105;-63
2022/11/05 07:47:20;;;;;;;6.03;2.30;;;;;;;;;;4990790;28;20050;-63
2022/11/05 07:49:46;;;;;;;5.15;2.47;;;;;;;;;;4950388;28;20046;-63
2022/11/05 07:52:13;;;;;;;12.95;3.95;;;;;;;;;;4963551;28;20054;-63
2022/11/05 07:54:40;;;;;;;6.20;1.90;;;;;;;;;;4961339;28;20206;-63
2022/11/05 07:57:06;;;;;;;12.73;2.25;;;;;;;;;;4991989;28;20065;-63
2022/11/05 07:59:33;;;;;;;4.07;1.70;;;;;;;;;;4953439;28;20058;-63
2022/11/05 08:01:59;;;;;;;5.53;2.15;;;;;;;;;;4959509;28;20069;-63
2022/11/05 08:04:27;;;;;;;13.85;2.85;;;;;;;;;;4992119;28;20047;-63
2022/11/05 08:06:54;;;;;;;4.10;2.10;;;;;;;;;;4957042;28;20113;-63
2022/11/05 08:09:21;;;;;;;6.78;2.78;;;;;;;;;;4960678;28;20051;-63
2022/11/05 08:11:47;;;;;;;5.95;2.10;;;;;;;;;;4951164;28;20153;-64
2022/11/05 08:14:14;;;;;;;8.02;2.45;;;;;;;;;;4990739;28;20062;-63
2022/11/05 08:16:41;;;;;;;7.30;2.83;;;;;;;;;;4957238;28;20054;-63
2022/11/05 08:19:07;;;;;;;6.63;3.25;;;;;;;;;;4963093;28;20055;-63
2022/11/05 08:21:35;;;;;;;7.60;2.45;;;;;;;;;;4976188;28;20046;-63
2022/11/05 08:24:02;;;;;;;6.30;2.35;;;;;;;;;;4961746;28;20051;-63
2022/11/05 08:26:28;;;;;;;7.25;2.40;;;;;;;;;;4985706;28;20069;-63
2022/11/05 08:28:55;;;;;;;12.70;3.42;;;;;;;;;;4962234;28;20058;-63
2022/11/05 08:31:21;;;;;;;9.13;3.35;;;;;;;;;;4962127;28;20057;-63
2022/11/05 08:33:48;;;;;;;8.35;3.75;;;;;;;;;;4955200;28;20051;-63
2022/11/05 08:36:14;;;;;;;6.90;2.90;;;;;;;;;;4987408;28;20082;-63
2022/11/05 08:38:43;;;;;;;6.10;2.17;;;;;;;;;;4965102;28;20122;-63
2022/11/05 08:41:09;;;;;;;3.22;1.40;;;;;;;;;;4957088;28;20073;-63
2022/11/05 08:43:36;;;;;;;6.38;2.88;;;;;;;;;;4953813;28;20110;-60
2022/11/05 08:46:02;;;;;;;5.00;2.13;;;;;;;;;;4961895;28;20051;-65
2022/11/05 08:48:29;;;;;;;6.72;2.55;;;;;;;;;;4959380;28;20150;-65
2022/11/05 08:50:56;;;;;;;9.75;3.28;;;;;;;;;;4960111;28;20055;-65
2022/11/05 08:53:22;;;;;;;11.57;3.65;;;;;;;;;;4955967;28;20047;-65
2022/11/05 08:55:50;;;;;;;6.07;2.50;;;;;;;;;;4959015;28;20081;-65
2022/11/05 08:58:19;;;;;;;5.30;2.72;;;;;;;;;;4958629;28;20058;-65
2022/11/05 09:00:46;;;;;;;7.30;2.33;;;;;;;;;;4959664;28;20137;-65
2022/11/05 09:03:16;;;;;;;7.75;2.92;;;;;;;;;;4987485;28;20051;-66
2022/11/05 09:05:43;;;;;;;5.80;1.90;;;;;;;;;;4957952;28;20050;-66
2022/11/05 09:08:11;;;;;;;7.03;2.72;;;;;;;;;;4956222;28;20097;-65
2022/11/05 09:10:38;;;;;;;11.07;3.25;;;;;;;;;;4964455;28;20062;-65
2022/11/05 09:13:06;;;;;;;9.02;3.50;;;;;;;;;;4954128;28;20055;-65
2022/11/05 09:15:34;;;;;;;8.23;2.97;;;;;;;;;;4958190;28;20125;-65
2022/11/05 09:18:01;;;;;;;7.60;2.95;;;;;;;;;;4953526;28;20063;-64
2022/11/05 09:20:27;;;;;;;8.43;2.92;;;;;;;;;;4959417;28;20050;-65
2022/11/05 09:22:54;;;;;;;8.55;2.58;;;;;;;;;;4955176;28;20078;-64
2022/11/05 09:25:21;;;;;;;5.43;2.00;;;;;;;;;;4960644;28;20261;-64
2022/11/05 09:27:47;;;;;;;6.80;2.80;;;;;;;;;;4953448;28;20126;-65
2022/11/05 09:30:16;;;;;;;6.93;2.33;;;;;;;;;;4953528;28;20240;-64
2022/11/05 09:32:42;;;;;;;6.63;2.60;;;;;;;;;;4959837;28;20146;-64
2022/11/05 09:35:09;;;;;;;9.05;3.50;;;;;;;;;;4954749;28;20051;-64
2022/11/05 09:37:36;;;;;;;6.22;2.70;;;;;;;;;;4954375;28;20051;-64
2022/11/05 09:40:03;;;;;;;6.63;2.80;;;;;;;;;;4952994;28;20050;-65
2022/11/05 09:42:32;;;;;;;8.27;3.22;;;;;;;;;;4959540;28;20220;-64
2022/11/05 09:45:01;;;;;;;7.97;3.50;;;;;;;;;;4954539;28;20053;-64
2022/11/05 09:47:33;;;;;;;12.52;3.22;;;;;;;;;;4957731;28;20073;-64
2022/11/05 09:50:02;;;;;;;9.63;3.13;;;;;;;;;;4953273;28;20080;-66
2022/11/05 09:52:30;;;;;;;6.53;2.85;;;;;;;;;;4959532;28;20058;-65
2022/11/05 09:54:57;;;;;;;6.82;3.03;;;;;;;;;;4954909;28;20086;-65
2022/11/05 09:57:26;;;;;;;5.38;2.60;;;;;;;;;;4959452;28;20055;-64
2022/11/05 09:59:54;;;;;;;10.50;3.28;;;;;;;;;;4947838;28;20063;-65
2022/11/05 10:02:22;;;;;;;8.25;2.83;;;;;;;;;;4959191;28;20094;-65
2022/11/05 10:04:51;;;;;;;7.00;2.60;;;;;;;;;;4954230;28;20050;-64
2022/11/05 10:07:19;;;;;;;5.22;2.35;;;;;;;;;;4959137;28;20062;-64
2022/11/05 10:09:47;;;;;;;6.03;2.53;;;;;;;;;;4944665;28;20066;-64
2022/11/05 10:12:16;;;;;;;6.65;2.40;;;;;;;;;;4959237;28;20050;-65
2022/11/05 10:14:45;;;;;;;8.35;2.72;;;;;;;;;;4959185;28;20098;-65
2022/11/05 10:17:15;;;;;;;9.02;3.00;;;;;;;;;;4956377;28;20058;-64
2022/11/05 10:19:43;;;;;;;7.32;2.85;;;;;;;;;;4955504;28;20061;-65
2022/11/05 10:22:12;;;;;;;8.68;3.22;;;;;;;;;;4961614;28;20078;-65
2022/11/05 10:24:40;;;;;;;10.27;2.97;;;;;;;;;;4963342;28;20046;-64
2022/11/05 10:27:07;;;;;;;6.82;3.33;;;;;;;;;;4957350;28;20086;-67
2022/11/05 10:29:34;;;;;;;8.13;3.30;;;;;;;;;;4961623;28;20059;-63
2022/11/05 10:32:04;;;;;;;10.13;3.05;;;;;;;;;;4957722;28;20069;-64
2022/11/05 10:34:32;;;;;;;9.25;3.30;;;;;;;;;;4962510;28;20078;-63
2022/11/05 10:36:59;;;;;;;10.20;3.20;;;;;;;;;;4956804;28;20055;-62
2022/11/05 10:39:29;;;;;;;7.28;3.33;;;;;;;;;;4966900;28;20074;-63
2022/11/05 10:42:01;;;;;;;7.45;3.03;;;;;;;;;;4957467;28;20086;-64
2022/11/05 10:44:32;;;;;;;9.50;3.55;;;;;;;;;;4962363;28;20092;-63
2022/11/05 10:47:05;;;;;;;5.90;2.53;;;;;;;;;;4957361;28;20055;-64
2022/11/05 10:49:37;;;;;;;8.57;2.92;;;;;;;;;;4958395;28;20063;-65
2022/11/05 10:52:12;;;;;;;6.55;2.83;;;;;;;;;;4956867;28;20065;-63
2022/11/05 10:54:40;;;;;;;8.55;2.90;;;;;;;;;;4966528;28;20055;-64
2022/11/05 10:57:29;;;;;;;13.40;3.30;;;;;;;;;;4957085;28;20058;-65
2022/11/05 11:00:17;;;;;;;8.32;2.97;;;;;;;;;;4942412;28;20150;-63
2022/11/05 11:02:46;;;;;;;6.88;2.95;;;;;;;;;;4956417;28;20062;-64
2022/11/05 11:05:19;;;;;;;12.15;3.25;;;;;;;;;;4962370;28;20114;-64
2022/11/05 11:07:52;;;;;;;8.57;2.85;;;;;;;;;;4946625;28;20055;-64
2022/11/05 11:10:21;;;;;;;7.80;3.30;;;;;;;;;;4962205;28;20113;-63
2022/11/05 11:12:49;;;;;;;8.60;2.78;;;;;;;;;;4957137;28;20054;-64
2022/11/05 11:15:16;;;;;;;7.73;2.97;;;;;;;;;;4962655;28;20084;-64
2022/11/05 11:17:43;;;;;;;9.13;3.20;;;;;;;;;;4958232;28;20115;-64
2022/11/05 11:20:20;;;;;;;9.73;2.80;;;;;;;;;;4961819;28;20058;-63
2022/11/05 11:23:00;;;;;;;5.82;2.50;;;;;;;;;;4960381;28;20043;-63
2022/11/05 11:25:35;;;;;;;9.80;3.00;;;;;;;;;;4965937;28;20046;-63
2022/11/05 11:28:03;;;;;;;7.22;2.92;;;;;;;;;;4954864;28;20062;-64
2022/11/05 11:30:30;;;;;;;10.07;3.05;;;;;;;;;;4962011;28;20058;-63
2022/11/05 11:32:59;;;;;;;14.35;4.55;;;;;;;;;;4955798;28;20069;-64
2022/11/05 11:35:27;;;;;;;10.23;3.20;;;;;;;;;;4961388;28;20055;-64
2022/11/05 11:37:54;;;;;;;7.00;2.72;;;;;;;;;;4952489;28;20048;-64
2022/11/05 11:40:23;;;;;;;5.90;2.67;;;;;;;;;;4956637;28;20046;-63
2022/11/05 11:42:52;;;;;;;5.57;2.47;;;;;;;;;;4961005;28;20050;-66
2022/11/05 11:45:21;;;;;;;8.85;2.83;;;;;;;;;;4992946;28;20051;-64
2022/11/05 11:47:49;;;;;;;5.38;2.50;;;;;;;;;;4956136;28;20201;-64
2022/11/05 11:50:31;;;;;;;7.25;2.65;;;;;;;;;;4955483;28;20150;-63
2022/11/05 11:53:15;;;;;;;5.63;2.60;;;;;;;;;;4959759;28;20051;-65
2022/11/05 11:55:56;;;;;;;8.77;2.80;;;;;;;;;;4949511;28;20065;-63
2022/11/05 11:58:24;;;;;;;9.50;2.67;;;;;;;;;;4961136;28;20078;-63
2022/11/05 12:00:51;;;;;;;;;;;;;;;;;;4955557;28;20059;-64
2022/11/05 12:03:22;;;;;;;8.52;2.40;;;;;;;;;;4961314;28;19922;-63
2022/11/05 12:05:53;;;;;;;5.88;2.53;;;;;;;;;;4949250;28;20128;-63
2022/11/05 12:08:36;;;;;;;5.32;2.22;;;;;;;;;;4963286;28;20051;-66
2022/11/05 12:11:04;;;;;;;4.88;2.25;;;;;;;;;;4956338;28;20097;-67
2022/11/05 12:13:48;;;;;;;7.03;2.47;;;;;;;;;;4956839;28;20142;-66
2022/11/05 12:16:19;;;;;;;6.03;2.30;;;;;;;;;;4956546;28;20055;-67
2022/11/05 12:18:48;;;;;;;5.10;2.25;;;;;;;;;;4961983;28;20059;-66
2022/11/05 12:21:18;;;;;;;9.68;3.00;;;;;;;;;;4955045;28;20058;-67
2022/11/05 12:23:56;;;;;;;8.90;2.67;;;;;;;;;;4954664;28;20042;-65
2022/11/05 12:26:28;;;;;;;10.57;3.05;;;;;;;;;;4957061;28;20063;-66
2022/11/05 12:29:14;;;;;;;9.88;3.35;;;;;;;;;;4964485;28;20062;-65
2022/11/05 12:31:44;;;;;;;8.80;3.45;;;;;;;;;;4946831;28;20046;-63
2022/11/05 12:34:24;;;;;;;13.00;4.38;;;;;;;;;;4961565;28;20062;-63
2022/11/05 12:37:02;;;;;;;9.45;3.58;;;;;;;;;;4955687;28;20073;-63
2022/11/05 12:39:39;;;;;;;7.93;3.13;;;;;;;;;;4959163;28;20070;-65
2022/11/05 12:42:08;;;;;;;8.63;3.53;;;;;;;;;;4954943;28;20141;-63
2022/11/05 12:44:34;;;;;;;;;;;;;;;;;;4957056;28;20178;-63
2022/11/05 12:47:07;;;;;;;11.13;3.20;;;;;;;;;;4955093;28;19926;-63
2022/11/05 12:49:47;;;;;;;9.30;3.28;;;;;;;;;;4954172;28;20149;-63
2022/11/05 12:52:21;;;;;;;7.35;2.83;;;;;;;;;;4959069;28;20126;-63
2022/11/05 12:54:54;;;;;;;9.93;2.72;;;;;;;;;;4961046;28;20134;-63
2022/11/05 12:57:22;;;;;;;7.78;2.97;;;;;;;;;;4956178;28;20058;-63
2022/11/05 12:59:51;;;;;;;8.07;3.22;;;;;;;;;;4954340;28;20055;-63
2022/11/05 13:02:25;;;;;;;7.15;2.85;;;;;;;;;;4954988;28;20121;-63
2022/11/05 13:04:53;;;;;;;9.13;3.40;;;;;;;;;;4959961;28;20046;-63
2022/11/05 13:07:22;;;;;;;8.95;3.00;;;;;;;;;;4953892;28;20054;-63
2022/11/05 13:09:52;;;;;;;7.65;2.92;;;;;;;;;;4952028;28;20050;-64
2022/11/05 13:12:20;;;;;;;10.20;3.25;;;;;;;;;;4954128;28;20071;-63
2022/11/05 13:14:47;;;;;;;;;;;;;;;;;;4960435;28;20047;-63
2022/11/05 13:17:15;;;;;;;5.93;2.50;;;;;;;;;;4953970;28;19937;-64
2022/11/05 13:19:46;;;;;;;6.93;2.25;;;;;;;;;;4957482;28;20050;-63
2022/11/05 13:22:17;;;;;;;6.47;2.72;;;;;;;;;;4953731;28;20062;-64
2022/11/05 13:24:48;;;;;;;6.43;2.70;;;;;;;;;;4958906;28;20074;-63
2022/11/05 13:27:27;;;;;;;7.00;2.92;;;;;;;;;;4958666;28;20057;-64
2022/11/05 13:29:58;;;;;;;6.35;2.78;;;;;;;;;;4934557;28;20102;-63
2022/11/05 13:32:28;;;;;;;6.97;2.55;;;;;;;;;;4940244;28;20062;-63
2022/11/05 13:34:56;;;;;;;5.72;2.03;;;;;;;;;;4962304;28;20054;-63
2022/11/05 13:40:09;;;;;;;6.50;2.10;;;;;;;;;;4958195;28;20064;-64
2022/11/05 13:42:44;;;;;;;9.32;2.83;;;;;;;;;;4986007;28;20129;-63
2022/11/05 13:45:20;;;;;;;8.30;2.72;;;;;;;;;;4954457;28;20059;-64
2022/11/05 13:47:57;;;;;;;9.88;2.78;;;;;;;;;;4957516;28;20055;-64
2022/11/05 13:50:47;;;;;;;10.95;2.65;;;;;;;;;;4956753;28;20054;-63
2022/11/05 13:53:34;;;;;;;7.32;2.50;;;;;;;;;;4943375;28;20061;-64
2022/11/05 13:56:10;;;;;;;12.13;2.47;;;;;;;;;;4959508;28;20059;-63
2022/11/05 13:58:57;;;;;;;6.85;2.80;;;;;;;;;;4955657;28;20042;-63
2022/11/05 14:01:33;;;;;;;6.85;2.60;;;;;;;;;;4959331;28;20050;-63
2022/11/05 14:04:00;;;;;;;6.43;2.13;;;;;;;;;;4955134;28;20093;-63
2022/11/05 14:06:30;;;;;;;9.65;2.70;;;;;;;;;;4959665;28;20050;-63
2022/11/05 14:09:00;;;;;;;9.40;2.80;;;;;;;;;;4957363;28;20059;-63
2022/11/05 14:11:29;;;;;;;7.72;2.53;;;;;;;;;;4944089;28;20059;-63
2022/11/05 14:13:57;;;;;;;6.38;2.60;;;;;;;;;;4939723;28;20059;-64
2022/11/05 14:16:24;;;;;;;4.18;2.30;;;;;;;;;;4953572;28;20070;-63
2022/11/05 14:18:53;;;;;;;9.18;2.30;;;;;;;;;;4990730;28;20078;-63
2022/11/05 14:21:48;;;;;;;8.63;2.97;;;;;;;;;;4977875;28;20078;-63
2022/11/05 14:24:24;;;;;;;8.15;2.45;;;;;;;;;;4961117;28;20128;-63
2022/11/05 14:27:06;;;;;;;10.02;3.15;;;;;;;;;;4954159;28;20058;-64
2022/11/05 14:29:37;;;;;;;6.53;2.47;;;;;;;;;;4956423;28;20054;-65
2022/11/05 14:32:04;;;;;;;8.70;2.90;;;;;;;;;;4954130;28;20069;-63
2022/11/05 14:34:45;;;;;;;6.88;2.85;;;;;;;;;;4963206;28;20128;-63
2022/11/05 14:37:28;;;;;;;9.00;2.63;;;;;;;;;;4947649;28;20054;-63
2022/11/05 14:40:22;;;;;;;8.30;2.70;;;;;;;;;;4992099;28;20069;-63
2022/11/05 14:42:50;;;;;;;6.50;2.03;;;;;;;;;;4963270;28;20054;-64
2022/11/05 14:45:23;;;;;;;6.00;2.88;;;;;;;;;;4994430;28;20050;-63
2022/11/05 14:47:52;;;;;;;5.35;2.58;;;;;;;;;;4937298;28;20059;-63
2022/11/05 14:50:19;;;;;;;7.57;2.60;;;;;;;;;;4939555;28;20122;-63
2022/11/05 14:52:51;;;;;;;6.97;3.05;;;;;;;;;;4956463;28;20074;-64
2022/11/05 14:55:28;;;;;;;9.05;2.67;;;;;;;;;;4960975;28;20058;-63
2022/11/05 14:58:05;;;;;;;10.67;2.80;;;;;;;;;;4952946;28;20879;-63
2022/11/05 15:00:56;;;;;;;8.38;2.55;;;;;;;;;;4952960;28;20058;-63
2022/11/05 15:03:36;;;;;;;7.03;2.20;;;;;;;;;;4940224;28;20051;-63
2022/11/05 15:06:35;;;;;;;6.22;1.95;;;;;;;;;;4960190;28;20063;-64
2022/11/05 15:09:12;;;;;;;7.50;2.70;;;;;;;;;;4891587;29;20052;-63
2022/11/05 15:11:44;;;;;;;7.47;2.50;;;;;;;;;;4941197;28;20055;-66
2022/11/05 15:14:24;;;;;;;7.07;2.33;;;;;;;;;;4968341;28;20055;-65
2022/11/05 15:16:52;;;;;;;5.05;2.20;;;;;;;;;;4950024;28;20050;-66
2022/11/05 15:19:25;;;;;;;5.38;2.22;;;;;;;;;;4945832;28;20054;-63
2022/11/05 15:21:57;;;;;;;5.07;1.95;;;;;;;;;;4953282;28;20051;-63
2022/11/05 15:24:29;;;;;;;6.72;2.20;;;;;;;;;;4966723;28;20081;-63
2022/11/05 15:27:17;;;;;;;7.55;1.83;;;;;;;;;;4954607;28;20062;-64
2022/11/05 15:29:48;;;;;;;6.15;2.03;;;;;;;;;;4941779;28;20063;-66
2022/11/05 15:32:17;;;;;;;5.00;2.20;;;;;;;;;;4948671;28;20049;-63
2022/11/05 15:34:51;;;;;;;6.70;2.42;;;;;;;;;;4952099;28;20141;-64
2022/11/05 15:37:22;;;;;;;8.10;2.10;;;;;;;;;;4994183;28;20095;-64
2022/11/05 15:39:51;;;;;;;4.20;1.83;;;;;;;;;;4954747;28;20054;-65
2022/11/05 15:42:25;;;;;;;7.68;2.33;;;;;;;;;;4961739;28;20114;-65
2022/11/05 15:44:53;;;;;;;8.52;2.35;;;;;;;;;;4951637;28;20413;-63